createdAt,value
2017-12-26T00:00:56.561Z,11.3
2017-12-26T00:01:59.408Z,11.3
2017-12-26T00:03:02.944Z,10.4
2017-12-26T00:04:05.216Z,9.8
2017-12-26T00:05:07.454Z,10.4
2017-12-26T00:06:09.673Z,10.6
2017-12-26T00:07:15.011Z,11.3
2017-12-26T00:08:18.521Z,11.2
2017-12-26T00:09:21.005Z,10.2
2017-12-26T00:10:23.474Z,10.8
2017-12-26T00:11:25.692Z,11.3
2017-12-26T00:12:27.772Z,10.9
2017-12-26T00:13:29.914Z,11.2
2017-12-26T00:14:32.465Z,11.6
2017-12-26T00:15:34.747Z,11.0
2017-12-26T00:16:37.106Z,11.4
2017-12-26T00:17:39.255Z,11.5
2017-12-26T00:18:41.553Z,11.0
2017-12-26T00:19:43.721Z,10.9
2017-12-26T00:20:48.001Z,10.7
2017-12-26T00:21:50.973Z,11.2
2017-12-26T00:22:53.057Z,10.3
2017-12-26T00:23:55.136Z,10.4
2017-12-26T00:24:57.289Z,11.3
2017-12-26T00:26:00.075Z,10.1
2017-12-26T00:27:02.231Z,12.0
2017-12-26T00:28:04.256Z,11.3
2017-12-26T00:29:06.297Z,11.3
2017-12-26T00:30:08.488Z,11.8
2017-12-26T00:31:10.561Z,11.8
2017-12-26T00:32:12.651Z,11.8
2017-12-26T00:33:14.965Z,11.8
2017-12-26T00:34:17.167Z,11.1
2017-12-26T00:35:19.198Z,12.1
2017-12-26T00:36:21.232Z,11.0
2017-12-26T00:37:23.432Z,11.2
2017-12-26T00:38:25.605Z,11.9
2017-12-26T00:39:28.128Z,11.5
2017-12-26T00:40:30.521Z,10.9
2017-12-26T00:41:32.858Z,12.1
2017-12-26T00:42:35.015Z,11.2
2017-12-26T00:43:38.278Z,10.9
2017-12-26T00:44:40.586Z,10.5
2017-12-26T00:45:42.910Z,10.9
2017-12-26T00:46:45.017Z,11.6
2017-12-26T00:47:47.343Z,11.8
2017-12-26T00:48:49.466Z,12.7
2017-12-26T00:49:51.698Z,10.9
2017-12-26T00:50:53.806Z,11.1
2017-12-26T00:51:56.686Z,11.5
2017-12-26T00:52:58.743Z,12.4
2017-12-26T00:54:00.834Z,12.0
2017-12-26T00:55:02.987Z,12.1
2017-12-26T00:56:05.081Z,10.8
2017-12-26T00:57:07.109Z,11.5
2017-12-26T00:58:09.127Z,11.8
2017-12-26T00:59:11.405Z,11.4
2017-12-26T01:00:13.468Z,11.8
2017-12-26T01:01:15.850Z,11.4
2017-12-26T01:02:19.120Z,11.8
2017-12-26T01:03:21.559Z,11.8
2017-12-26T01:04:23.844Z,11.9
2017-12-26T01:05:25.943Z,11.7
2017-12-26T01:06:28.128Z,12.0
2017-12-26T01:07:30.253Z,12.6
2017-12-26T01:08:32.473Z,11.6
2017-12-26T01:09:34.584Z,12.4
2017-12-26T01:10:36.651Z,12.9
2017-12-26T01:11:38.637Z,11.9
2017-12-26T01:12:40.696Z,12.6
2017-12-26T01:13:42.760Z,12.6
2017-12-26T01:14:44.869Z,12.3
2017-12-26T01:15:46.767Z,13.7
2017-12-26T01:16:48.885Z,12.0
2017-12-26T01:17:50.892Z,12.1
2017-12-26T01:18:52.907Z,12.2
2017-12-26T01:19:55.019Z,12.8
2017-12-26T01:20:56.928Z,12.7
2017-12-26T01:21:58.947Z,12.5
2017-12-26T01:23:00.882Z,13.7
2017-12-26T01:24:03.070Z,12.0
2017-12-26T01:25:05.320Z,13.2
2017-12-26T01:26:10.611Z,12.9
2017-12-26T01:27:12.541Z,13.0
2017-12-26T01:28:14.566Z,13.7
2017-12-26T01:29:16.783Z,12.4
2017-12-26T01:30:18.847Z,13.1
2017-12-26T01:31:24.413Z,11.8
2017-12-26T01:32:26.544Z,12.6
2017-12-26T01:33:28.535Z,12.1
2017-12-26T01:34:30.537Z,11.6
2017-12-26T01:35:32.557Z,12.1
2017-12-26T01:36:34.588Z,11.9
2017-12-26T01:37:36.560Z,12.9
2017-12-26T01:38:38.556Z,11.7
2017-12-26T01:39:40.598Z,12.8
2017-12-26T01:40:42.801Z,12.7
2017-12-26T01:41:44.720Z,11.8
2017-12-26T01:42:46.716Z,13.1
2017-12-26T01:43:48.760Z,11.5
2017-12-26T01:44:50.736Z,12.1
2017-12-26T01:45:52.818Z,11.6
2017-12-26T01:46:54.958Z,10.8
2017-12-26T01:47:56.929Z,11.3
2017-12-26T01:48:59.016Z,11.5
2017-12-26T01:50:01.133Z,10.4
2017-12-26T01:51:03.159Z,10.3
2017-12-26T01:52:05.187Z,11.4
2017-12-26T01:53:07.172Z,10.9
2017-12-26T01:54:09.121Z,11.3
2017-12-26T01:55:11.083Z,11.3
2017-12-26T01:56:13.039Z,11.5
2017-12-26T01:57:15.261Z,10.4
2017-12-26T01:58:17.238Z,11.1
2017-12-26T01:59:19.156Z,11.7
2017-12-26T02:00:21.185Z,11.6
2017-12-26T02:01:23.310Z,12.0
2017-12-26T02:02:25.570Z,11.8
2017-12-26T02:03:28.116Z,12.4
2017-12-26T02:04:30.084Z,11.7
2017-12-26T02:05:32.168Z,11.4
2017-12-26T02:06:34.073Z,12.4
2017-12-26T02:07:36.042Z,12.0
2017-12-26T02:08:38.184Z,11.6
2017-12-26T02:09:40.170Z,12.8
2017-12-26T02:10:42.196Z,10.9
2017-12-26T02:11:44.229Z,11.7
2017-12-26T02:12:46.500Z,11.1
2017-12-26T02:13:48.411Z,10.6
2017-12-26T02:14:50.281Z,12.1
2017-12-26T02:15:52.240Z,11.8
2017-12-26T02:16:54.154Z,9.9
2017-12-26T02:17:56.197Z,10.1
2017-12-26T02:18:58.156Z,11.6
2017-12-26T02:20:00.094Z,12.4
2017-12-26T02:21:02.093Z,12.0
2017-12-26T02:22:04.074Z,11.1
2017-12-26T02:23:06.010Z,11.2
2017-12-26T02:24:08.029Z,9.9
2017-12-26T02:25:10.032Z,10.3
2017-12-26T02:26:11.991Z,11.2
2017-12-26T02:27:13.975Z,10.6
2017-12-26T02:28:15.990Z,10.6
2017-12-26T02:29:17.991Z,11.1
2017-12-26T02:30:20.323Z,10.6
2017-12-26T02:31:22.202Z,11.4
2017-12-26T02:32:24.297Z,10.7
2017-12-26T02:33:26.492Z,11.1
2017-12-26T02:34:28.520Z,11.3
2017-12-26T02:35:30.592Z,10.1
2017-12-26T02:36:32.839Z,11.0
2017-12-26T02:37:34.954Z,10.8
2017-12-26T02:38:36.934Z,10.7
2017-12-26T02:39:38.835Z,10.2
2017-12-26T02:40:40.841Z,11.9
2017-12-26T02:41:42.798Z,10.7
2017-12-26T02:42:44.718Z,10.6
2017-12-26T02:43:46.633Z,11.7
2017-12-26T02:44:48.507Z,11.5
2017-12-26T02:45:50.568Z,12.2
2017-12-26T02:46:52.439Z,12.3
2017-12-26T02:47:54.457Z,11.2
2017-12-26T02:48:56.419Z,11.1
2017-12-26T02:49:58.413Z,11.1
2017-12-26T02:51:00.533Z,12.4
2017-12-26T02:52:02.480Z,13.3
2017-12-26T02:53:04.397Z,11.8
2017-12-26T02:54:06.458Z,12.5
2017-12-26T02:55:08.430Z,12.0
2017-12-26T03:01:53.822Z,10.5
2017-12-26T03:02:55.695Z,12.0
2017-12-26T03:03:57.689Z,11.7
2017-12-26T03:04:59.576Z,11.9
2017-12-26T03:06:01.596Z,14.2
2017-12-26T03:07:03.615Z,14.3
2017-12-26T03:08:05.628Z,13.7
2017-12-26T03:09:07.604Z,14.7
2017-12-26T03:10:09.580Z,13.2
2017-12-26T03:11:11.523Z,14.2
2017-12-26T03:12:13.468Z,14.1
2017-12-26T03:13:15.389Z,13.2
2017-12-26T03:14:17.360Z,13.4
2017-12-26T03:15:19.305Z,13.3
2017-12-26T03:16:21.155Z,13.7
2017-12-26T03:17:23.178Z,12.8
2017-12-26T03:18:25.087Z,13.4
2017-12-26T03:19:27.021Z,14.5
2017-12-26T03:20:28.896Z,14.5
2017-12-26T03:21:30.877Z,14.7
2017-12-26T03:22:32.858Z,14.8
2017-12-26T03:23:34.788Z,15.2
2017-12-26T03:24:36.724Z,15.7
2017-12-26T03:25:38.671Z,14.2
2017-12-26T03:26:40.580Z,15.0
2017-12-26T03:27:42.581Z,15.9
2017-12-26T03:28:44.515Z,15.9
2017-12-26T03:29:46.389Z,16.0
2017-12-26T03:30:48.402Z,15.5
2017-12-26T03:31:50.306Z,15.4
2017-12-26T03:32:52.204Z,16.7
2017-12-26T03:33:54.136Z,15.8
2017-12-26T03:34:56.073Z,16.4
2017-12-26T03:35:58.102Z,16.6
2017-12-26T03:37:00.166Z,16.7
2017-12-26T03:38:02.123Z,16.4
2017-12-26T03:39:04.006Z,16.2
2017-12-26T03:40:05.876Z,16.2
2017-12-26T03:41:07.757Z,15.8
2017-12-26T03:42:09.630Z,16.1
2017-12-26T03:43:11.474Z,16.1
2017-12-26T03:44:13.429Z,17.8
2017-12-26T03:45:15.315Z,16.4
2017-12-26T03:46:17.323Z,17.5
2017-12-26T03:47:19.246Z,17.1
2017-12-26T03:48:21.162Z,17.5
2017-12-26T03:49:23.199Z,17.3
2017-12-26T03:50:25.076Z,17.1
2017-12-26T03:51:26.961Z,16.0
2017-12-26T03:52:28.925Z,17.0
2017-12-26T03:53:30.811Z,16.5
2017-12-26T03:54:32.684Z,17.2
2017-12-26T03:55:34.676Z,17.4
2017-12-26T03:56:36.594Z,17.8
2017-12-26T03:57:38.556Z,16.9
2017-12-26T03:58:40.488Z,18.2
2017-12-26T03:59:42.359Z,18.0
2017-12-26T04:00:44.311Z,17.2
2017-12-26T04:01:46.226Z,16.8
2017-12-26T04:02:48.125Z,17.6
2017-12-26T04:03:49.988Z,18.5
2017-12-26T04:04:51.839Z,17.9
2017-12-26T04:05:53.742Z,20.0
2017-12-26T04:06:55.638Z,18.6
2017-12-26T04:07:57.632Z,19.1
2017-12-26T04:08:59.550Z,18.9
2017-12-26T04:10:01.468Z,18.8
2017-12-26T04:11:03.401Z,18.2
2017-12-26T04:12:05.300Z,18.2
2017-12-26T04:13:07.173Z,18.4
2017-12-26T04:14:09.070Z,20.0
2017-12-26T04:15:11.014Z,19.9
2017-12-26T04:16:12.916Z,19.2
2017-12-26T04:17:14.799Z,19.2
2017-12-26T04:18:16.793Z,19.3
2017-12-26T04:19:18.718Z,20.1
2017-12-26T04:20:20.623Z,18.8
2017-12-26T04:21:22.650Z,19.6
2017-12-26T04:22:24.570Z,18.3
2017-12-26T04:23:26.524Z,19.4
2017-12-26T04:24:28.443Z,19.7
2017-12-26T04:25:30.358Z,19.4
2017-12-26T04:26:32.286Z,20.2
2017-12-26T04:27:34.246Z,20.3
2017-12-26T04:28:36.253Z,19.3
2017-12-26T04:29:38.214Z,20.0
2017-12-26T04:30:40.203Z,19.0
2017-12-26T04:31:42.182Z,18.6
2017-12-26T04:32:44.138Z,20.3
2017-12-26T04:33:46.080Z,19.2
2017-12-26T04:34:48.081Z,19.6
2017-12-26T04:35:50.031Z,20.0
2017-12-26T04:36:51.976Z,17.7
2017-12-26T04:37:53.904Z,19.5
2017-12-26T04:38:55.800Z,20.1
2017-12-26T04:39:57.699Z,19.7
2017-12-26T04:40:59.649Z,20.5
2017-12-26T04:42:01.592Z,19.5
2017-12-26T04:43:03.572Z,18.8
2017-12-26T04:44:05.514Z,20.7
2017-12-26T04:45:07.446Z,20.5
2017-12-26T04:46:09.381Z,20.5
2017-12-26T04:47:11.240Z,18.8
2017-12-26T04:48:13.251Z,19.5
2017-12-26T04:49:15.257Z,17.3
2017-12-26T04:50:17.193Z,18.1
2017-12-26T04:51:19.151Z,19.3
2017-12-26T04:52:21.114Z,19.3
2017-12-26T04:53:23.119Z,19.3
2017-12-26T04:54:25.092Z,17.9
2017-12-26T04:55:26.999Z,18.6
2017-12-26T04:56:28.963Z,19.9
2017-12-26T04:57:30.906Z,19.5
2017-12-26T04:58:32.842Z,18.9
2017-12-26T04:59:34.760Z,20.3
2017-12-26T05:00:36.720Z,20.2
2017-12-26T05:01:38.581Z,20.2
2017-12-26T05:02:40.533Z,19.4
2017-12-26T05:03:42.469Z,19.3
2017-12-26T05:04:44.378Z,19.4
2017-12-26T05:05:46.328Z,21.0
2017-12-26T05:06:48.263Z,20.1
2017-12-26T05:07:50.189Z,20.2
2017-12-26T05:08:52.103Z,20.3
2017-12-26T05:09:54.005Z,19.8
2017-12-26T05:10:55.933Z,20.9
2017-12-26T05:11:57.879Z,20.8
2017-12-26T05:12:59.808Z,21.0
2017-12-26T05:14:01.757Z,20.5
2017-12-26T05:15:03.641Z,20.4
2017-12-26T05:16:05.538Z,20.7
2017-12-26T05:17:07.436Z,21.3
2017-12-26T05:18:09.367Z,21.4
2017-12-26T05:19:11.270Z,22.7
2017-12-26T05:20:13.192Z,22.4
2017-12-26T05:21:15.180Z,22.8
2017-12-26T05:22:17.098Z,24.9
2017-12-26T05:23:19.046Z,21.3
2017-12-26T05:24:21.036Z,22.6
2017-12-26T05:25:22.937Z,22.0
2017-12-26T05:26:24.879Z,23.0
2017-12-26T05:27:26.731Z,23.4
2017-12-26T05:28:28.693Z,24.3
2017-12-26T05:29:30.645Z,23.3
2017-12-26T05:30:32.599Z,23.2
2017-12-26T05:31:34.479Z,22.3
2017-12-26T05:32:36.453Z,22.0
2017-12-26T05:33:38.325Z,23.1
2017-12-26T05:34:40.275Z,23.4
2017-12-26T05:35:42.191Z,25.6
2017-12-26T05:36:44.115Z,25.0
2017-12-26T05:37:46.090Z,24.4
2017-12-26T05:38:48.030Z,26.0
2017-12-26T05:39:50.079Z,26.2
2017-12-26T05:40:52.016Z,27.3
2017-12-26T05:41:53.952Z,25.3
2017-12-26T05:42:55.857Z,25.5
2017-12-26T05:43:57.814Z,24.5
2017-12-26T05:44:59.815Z,25.0
2017-12-26T05:46:01.702Z,24.6
2017-12-26T05:47:03.625Z,24.1
2017-12-26T05:48:05.521Z,24.1
2017-12-26T05:49:07.502Z,24.2
2017-12-26T05:50:09.401Z,23.2
2017-12-26T05:51:11.293Z,24.7
2017-12-26T05:52:13.152Z,24.6
2017-12-26T05:53:15.064Z,23.4
2017-12-26T05:54:16.981Z,24.8
2017-12-26T05:55:18.842Z,23.9
2017-12-26T05:56:20.745Z,22.7
2017-12-26T05:57:22.665Z,24.8
2017-12-26T05:58:24.518Z,24.4
2017-12-26T05:59:26.455Z,24.2
2017-12-26T06:00:28.434Z,24.7
2017-12-26T06:01:30.217Z,25.2
2017-12-26T06:02:31.962Z,25.0
2017-12-26T06:03:33.836Z,24.5
2017-12-26T06:04:35.771Z,25.2
2017-12-26T06:05:37.657Z,23.6
2017-12-26T06:06:39.602Z,25.4
2017-12-26T06:07:41.443Z,25.0
2017-12-26T06:08:43.390Z,25.1
2017-12-26T06:09:45.287Z,24.3
2017-12-26T06:10:47.245Z,24.9
2017-12-26T06:11:49.182Z,26.1
2017-12-26T06:12:51.135Z,24.2
2017-12-26T06:13:53.132Z,24.5
2017-12-26T06:14:55.032Z,24.4
2017-12-26T06:15:56.930Z,24.2
2017-12-26T06:16:58.806Z,23.3
2017-12-26T06:18:00.753Z,23.5
2017-12-26T06:19:02.652Z,24.3
2017-12-26T06:20:04.562Z,23.2
2017-12-26T06:21:06.479Z,22.7
2017-12-26T06:22:08.406Z,23.5
2017-12-26T06:23:10.330Z,22.5
2017-12-26T06:24:12.220Z,23.1
2017-12-26T06:25:14.122Z,22.0
2017-12-26T06:26:16.073Z,22.3
2017-12-26T06:27:17.970Z,22.6
2017-12-26T06:28:19.919Z,22.7
2017-12-26T06:29:21.788Z,21.0
2017-12-26T06:30:23.725Z,19.6
2017-12-26T06:31:25.685Z,20.5
2017-12-26T06:32:27.554Z,19.1
2017-12-26T06:33:29.490Z,19.3
2017-12-26T06:34:31.344Z,19.4
2017-12-26T06:35:33.251Z,21.5
2017-12-26T06:36:35.151Z,20.6
2017-12-26T06:37:37.102Z,20.3
2017-12-26T06:38:38.941Z,20.5
2017-12-26T06:39:40.850Z,20.1
2017-12-26T06:40:42.762Z,20.6
2017-12-26T06:41:44.653Z,19.2
2017-12-26T06:42:46.604Z,19.8
2017-12-26T06:43:48.515Z,18.5
2017-12-26T06:44:50.457Z,18.5
2017-12-26T06:45:52.359Z,19.9
2017-12-26T06:46:54.245Z,20.3
2017-12-26T06:47:56.177Z,19.5
2017-12-26T06:48:58.113Z,18.7
2017-12-26T06:50:00.027Z,18.7
2017-12-26T06:51:01.995Z,17.6
2017-12-26T06:52:03.863Z,19.9
2017-12-26T06:53:05.771Z,20.0
2017-12-26T06:54:07.660Z,20.3
2017-12-26T06:55:09.588Z,19.4
2017-12-26T07:01:33.421Z,15.4
2017-12-26T07:02:35.103Z,15.3
2017-12-26T07:03:36.784Z,14.8
2017-12-26T07:04:38.493Z,15.3
2017-12-26T07:05:40.396Z,14.3
2017-12-26T07:06:42.337Z,15.5
2017-12-26T07:07:44.245Z,15.0
2017-12-26T07:08:46.238Z,14.6
2017-12-26T07:09:48.161Z,14.8
2017-12-26T07:10:50.032Z,14.3
2017-12-26T07:11:51.994Z,14.8
2017-12-26T07:12:53.878Z,14.3
2017-12-26T07:13:55.778Z,12.6
2017-12-26T07:14:57.693Z,13.0
2017-12-26T07:15:59.646Z,14.5
2017-12-26T07:17:02.000Z,13.6
2017-12-26T07:18:03.954Z,15.1
2017-12-26T07:19:05.903Z,14.8
2017-12-26T07:20:07.915Z,14.8
2017-12-26T07:21:09.782Z,15.2
2017-12-26T07:22:11.685Z,14.9
2017-12-26T07:23:13.635Z,14.0
2017-12-26T07:24:15.563Z,14.1
2017-12-26T07:25:17.563Z,12.4
2017-12-26T07:26:19.491Z,13.0
2017-12-26T07:27:21.468Z,14.1
2017-12-26T07:28:23.420Z,14.5
2017-12-26T07:29:25.246Z,13.0
2017-12-26T07:30:27.136Z,11.2
2017-12-26T07:31:29.039Z,12.1
2017-12-26T07:32:30.908Z,13.1
2017-12-26T07:33:32.812Z,12.5
2017-12-26T07:34:34.762Z,12.6
2017-12-26T07:35:36.685Z,13.2
2017-12-26T07:36:38.609Z,12.9
2017-12-26T07:37:40.566Z,12.5
2017-12-26T07:38:42.500Z,10.7
2017-12-26T07:39:44.402Z,10.6
2017-12-26T07:40:46.397Z,11.8
2017-12-26T07:41:48.288Z,11.1
2017-12-26T07:42:50.245Z,10.4
2017-12-26T07:43:52.365Z,11.9
2017-12-26T07:44:54.328Z,9.5
2017-12-26T07:45:56.283Z,10.8
2017-12-26T07:46:58.188Z,11.1
2017-12-26T07:48:00.088Z,10.3
2017-12-26T07:49:01.959Z,9.6
2017-12-26T07:50:03.909Z,9.8
2017-12-26T07:51:05.869Z,10.5
2017-12-26T07:52:07.841Z,10.4
2017-12-26T07:53:09.750Z,10.1
2017-12-26T07:54:11.622Z,9.4
2017-12-26T07:55:13.592Z,10.4
2017-12-26T07:56:15.548Z,10.4
2017-12-26T07:57:17.528Z,11.5
2017-12-26T07:58:19.526Z,12.4
2017-12-26T07:59:21.507Z,13.2
2017-12-26T08:00:23.464Z,11.3
2017-12-26T08:01:25.457Z,12.0
2017-12-26T08:02:27.366Z,10.3
2017-12-26T08:03:29.321Z,12.3
2017-12-26T08:04:31.338Z,11.6
2017-12-26T08:05:33.300Z,10.7
2017-12-26T08:06:35.239Z,12.6
2017-12-26T08:07:37.058Z,11.3
2017-12-26T08:08:38.788Z,10.5
2017-12-26T08:09:40.620Z,10.0
2017-12-26T08:10:42.450Z,11.8
2017-12-26T08:11:44.326Z,10.2
2017-12-26T08:12:46.248Z,11.2
2017-12-26T08:13:48.131Z,11.5
2017-12-26T08:14:49.989Z,11.1
2017-12-26T08:15:51.807Z,12.0
2017-12-26T08:16:53.740Z,11.7
2017-12-26T08:17:55.670Z,12.8
2017-12-26T08:18:57.606Z,12.9
2017-12-26T08:19:59.528Z,14.3
2017-12-26T08:21:01.362Z,13.0
2017-12-26T08:22:03.179Z,13.5
2017-12-26T08:23:05.005Z,13.9
2017-12-26T08:24:06.843Z,13.5
2017-12-26T08:25:08.732Z,13.1
2017-12-26T08:26:10.596Z,13.1
2017-12-26T08:27:12.493Z,11.0
2017-12-26T08:28:14.496Z,11.7
2017-12-26T08:29:16.412Z,12.5
2017-12-26T08:30:18.441Z,11.4
2017-12-26T08:31:20.496Z,12.6
2017-12-26T08:32:22.747Z,12.9
2017-12-26T08:33:24.741Z,13.1
2017-12-26T08:34:26.677Z,13.4
2017-12-26T08:35:28.779Z,13.6
2017-12-26T08:36:31.933Z,14.2
2017-12-26T08:37:34.094Z,14.0
2017-12-26T08:38:36.092Z,13.9
2017-12-26T08:39:38.073Z,15.5
2017-12-26T08:40:40.023Z,14.9
2017-12-26T08:41:42.001Z,15.4
2017-12-26T08:42:44.059Z,13.8
2017-12-26T08:43:45.996Z,13.8
2017-12-26T08:44:47.969Z,13.1
2017-12-26T08:45:49.887Z,13.6
2017-12-26T08:46:51.863Z,14.1
2017-12-26T08:47:53.992Z,16.6
2017-12-26T08:48:56.345Z,14.1
2017-12-26T08:49:58.339Z,14.6
2017-12-26T08:51:00.375Z,12.7
2017-12-26T08:52:02.407Z,14.0
2017-12-26T08:53:04.418Z,14.1
2017-12-26T08:54:06.415Z,13.5
2017-12-26T08:55:08.403Z,13.1
2017-12-26T08:56:10.352Z,12.9
2017-12-26T08:57:12.370Z,13.8
2017-12-26T08:58:14.372Z,15.6
2017-12-26T08:59:16.450Z,14.7
2017-12-26T09:00:18.464Z,13.8
2017-12-26T09:01:20.568Z,13.2
2017-12-26T09:02:22.501Z,11.0
2017-12-26T09:03:24.541Z,13.9
2017-12-26T09:04:26.541Z,14.5
2017-12-26T09:05:28.492Z,13.2
2017-12-26T09:06:30.463Z,12.9
2017-12-26T09:07:32.437Z,12.9
2017-12-26T09:08:34.418Z,11.1
2017-12-26T09:09:36.413Z,11.2
2017-12-26T09:10:38.380Z,11.2
2017-12-26T09:11:40.385Z,12.8
2017-12-26T09:12:42.365Z,10.7
2017-12-26T09:13:44.573Z,12.1
2017-12-26T09:14:46.676Z,11.7
2017-12-26T09:15:48.811Z,11.2
2017-12-26T09:16:50.887Z,9.9
2017-12-26T09:17:52.956Z,9.7
2017-12-26T09:18:55.454Z,9.1
2017-12-26T09:19:57.801Z,7.0
2017-12-26T09:21:00.139Z,7.0
2017-12-26T09:22:02.321Z,8.9
2017-12-26T09:23:04.668Z,6.8
2017-12-26T09:24:07.012Z,5.8
2017-12-26T09:25:09.232Z,7.1
2017-12-26T09:26:11.964Z,6.1
2017-12-26T09:27:14.479Z,6.9
2017-12-26T09:28:17.032Z,7.4
2017-12-26T09:29:22.652Z,5.3
2017-12-26T09:30:24.976Z,4.8
2017-12-26T09:31:27.376Z,5.3
2017-12-26T09:32:30.235Z,5.6
2017-12-26T09:33:32.768Z,5.3
2017-12-26T09:34:35.601Z,5.3
2017-12-26T09:35:38.145Z,5.0
2017-12-26T09:36:40.283Z,5.1
2017-12-26T09:37:42.539Z,4.3
2017-12-26T09:38:44.595Z,4.7
2017-12-26T09:39:46.559Z,5.2
2017-12-26T09:40:48.524Z,5.2
2017-12-26T09:41:50.623Z,4.9
2017-12-26T09:42:52.823Z,4.4
2017-12-26T09:43:54.908Z,4.6
2017-12-26T09:44:57.112Z,4.9
2017-12-26T09:45:59.132Z,4.2
2017-12-26T09:47:01.298Z,5.1
2017-12-26T09:48:03.910Z,5.3
2017-12-26T09:49:06.649Z,4.4
2017-12-26T09:50:08.606Z,4.9
2017-12-26T09:51:10.920Z,4.8
2017-12-26T09:52:12.705Z,5.0
2017-12-26T09:53:14.907Z,4.9
2017-12-26T09:54:16.900Z,4.2
2017-12-26T09:55:18.886Z,3.9
2017-12-26T09:56:20.902Z,4.0
2017-12-26T09:57:22.937Z,3.6
2017-12-26T09:58:24.976Z,2.5
2017-12-26T09:59:27.039Z,3.0
2017-12-26T10:00:29.145Z,2.8
2017-12-26T10:01:31.171Z,2.8
2017-12-26T10:02:33.313Z,2.9
2017-12-26T10:03:35.398Z,2.5
2017-12-26T10:04:37.673Z,2.3
2017-12-26T10:05:39.652Z,2.3
2017-12-26T10:06:41.924Z,2.1
2017-12-26T10:07:43.999Z,1.9
2017-12-26T10:08:46.056Z,2.1
2017-12-26T10:09:48.450Z,2.2
2017-12-26T10:10:50.592Z,1.9
2017-12-26T10:11:52.664Z,1.8
2017-12-26T10:12:54.757Z,2.3
2017-12-26T10:13:56.958Z,2.9
2017-12-26T10:14:58.982Z,1.8
2017-12-26T10:16:01.117Z,1.6
2017-12-26T10:17:03.237Z,1.7
2017-12-26T10:18:05.338Z,2.7
2017-12-26T10:19:07.548Z,2.3
2017-12-26T10:20:09.747Z,2.0
2017-12-26T10:21:12.283Z,5.6
2017-12-26T10:22:14.520Z,2.0
2017-12-26T10:23:16.776Z,1.2
2017-12-26T10:24:18.896Z,1.2
2017-12-26T10:25:21.446Z,1.2
2017-12-26T10:26:23.624Z,1.4
2017-12-26T10:27:25.670Z,1.7
2017-12-26T10:28:28.172Z,1.5
2017-12-26T10:29:30.275Z,3.0
2017-12-26T10:30:32.702Z,3.1
2017-12-26T10:31:34.872Z,2.4
2017-12-26T10:32:37.064Z,2.5
2017-12-26T10:33:39.436Z,3.9
2017-12-26T10:34:43.002Z,2.4
2017-12-26T10:35:46.156Z,2.8
2017-12-26T10:36:49.358Z,3.2
2017-12-26T10:37:52.944Z,2.1
2017-12-26T10:38:56.007Z,2.7
2017-12-26T10:39:59.579Z,2.7
2017-12-26T10:41:02.818Z,1.7
2017-12-26T10:42:05.998Z,2.1
2017-12-26T10:43:09.055Z,2.2
2017-12-26T10:44:12.421Z,2.1
2017-12-26T10:45:15.615Z,1.9
2017-12-26T10:46:19.068Z,1.9
2017-12-26T10:47:22.307Z,1.8
2017-12-26T10:48:25.353Z,2.0
2017-12-26T10:49:28.618Z,3.5
2017-12-26T10:50:31.645Z,3.5
2017-12-26T10:51:34.689Z,2.8
2017-12-26T10:52:37.589Z,2.0
2017-12-26T10:53:40.567Z,1.6
2017-12-26T10:54:43.770Z,1.7
2017-12-26T11:00:57.903Z,1.6
2017-12-26T11:02:00.448Z,1.5
2017-12-26T11:03:03.104Z,1.8
2017-12-26T11:04:05.062Z,1.7
2017-12-26T11:05:07.028Z,1.7
2017-12-26T11:06:08.987Z,1.7
2017-12-26T11:07:10.911Z,1.9
2017-12-26T11:08:12.849Z,1.5
2017-12-26T11:09:14.786Z,1.5
2017-12-26T11:10:16.759Z,1.7
2017-12-26T11:11:18.793Z,1.9
2017-12-26T11:12:20.781Z,1.9
2017-12-26T11:13:23.065Z,2.0
2017-12-26T11:14:25.054Z,2.0
2017-12-26T11:15:27.131Z,1.4
2017-12-26T11:16:28.958Z,1.4
2017-12-26T11:17:31.545Z,1.2
2017-12-26T11:18:34.078Z,1.7
2017-12-26T11:19:35.891Z,1.8
2017-12-26T11:20:37.792Z,2.0
2017-12-26T11:21:39.805Z,2.1
2017-12-26T11:22:41.675Z,1.9
2017-12-26T11:23:43.993Z,2.3
2017-12-26T11:24:45.908Z,2.1
2017-12-26T11:25:47.847Z,2.3
2017-12-26T11:26:49.854Z,2.8
2017-12-26T11:27:51.818Z,3.0
2017-12-26T11:28:54.612Z,4.5
2017-12-26T11:29:57.259Z,4.3
2017-12-26T11:31:00.062Z,3.7
2017-12-26T11:32:02.746Z,4.0
2017-12-26T11:33:05.851Z,2.4
2017-12-26T11:34:07.754Z,2.3
2017-12-26T11:35:09.729Z,2.6
2017-12-26T11:36:13.571Z,2.4
2017-12-26T11:37:15.571Z,2.6
2017-12-26T11:38:17.420Z,1.8
2017-12-26T11:39:19.286Z,2.7
2017-12-26T11:40:21.170Z,1.8
2017-12-26T11:41:23.164Z,1.7
2017-12-26T11:42:25.134Z,1.7
2017-12-26T11:43:27.119Z,1.9
2017-12-26T11:44:29.309Z,2.4
2017-12-26T11:45:31.236Z,1.6
2017-12-26T11:46:33.258Z,1.3
2017-12-26T11:47:35.181Z,1.5
2017-12-26T11:48:37.097Z,1.7
2017-12-26T11:49:39.118Z,1.4
2017-12-26T11:50:41.099Z,1.2
2017-12-26T11:51:43.123Z,1.3
2017-12-26T11:52:45.035Z,1.6
2017-12-26T11:53:47.035Z,2.1
2017-12-26T11:54:49.017Z,1.6
2017-12-26T11:55:50.914Z,1.5
2017-12-26T11:56:52.868Z,1.6
2017-12-26T11:57:54.813Z,2.0
2017-12-26T11:58:56.856Z,1.8
2017-12-26T11:59:58.855Z,1.8
2017-12-26T12:01:00.830Z,1.6
2017-12-26T12:02:02.815Z,1.6
2017-12-26T12:03:04.777Z,2.1
2017-12-26T12:04:06.768Z,1.7
2017-12-26T12:05:08.844Z,2.0
2017-12-26T12:06:10.698Z,2.5
2017-12-26T12:07:12.631Z,2.2
2017-12-26T12:08:14.536Z,2.0
2017-12-26T12:09:16.543Z,1.6
2017-12-26T12:10:18.490Z,1.4
2017-12-26T12:11:20.432Z,1.7
2017-12-26T12:12:22.355Z,1.6
2017-12-26T12:13:24.989Z,1.6
2017-12-26T12:15:36.314Z,1.9
2017-12-26T12:16:38.066Z,2.0
2017-12-26T12:17:39.813Z,2.2
2017-12-26T12:18:41.786Z,2.0
2017-12-26T12:19:43.757Z,1.4
2017-12-26T12:20:45.627Z,1.7
2017-12-26T12:21:47.608Z,1.8
2017-12-26T12:22:49.624Z,1.8
2017-12-26T12:23:51.566Z,1.7
2017-12-26T12:24:53.597Z,1.6
2017-12-26T12:25:55.501Z,1.6
2017-12-26T12:26:57.685Z,1.7
2017-12-26T12:27:59.606Z,1.6
2017-12-26T12:29:01.609Z,1.7
2017-12-26T12:30:03.571Z,1.9
2017-12-26T12:31:05.476Z,1.3
2017-12-26T12:32:07.462Z,1.9
2017-12-26T12:33:09.474Z,1.7
2017-12-26T12:34:11.358Z,2.0
2017-12-26T12:35:13.385Z,2.8
2017-12-26T12:36:15.338Z,2.1
2017-12-26T12:37:17.271Z,1.7
2017-12-26T12:38:19.329Z,1.7
2017-12-26T12:39:21.358Z,2.0
2017-12-26T12:40:23.762Z,1.7
2017-12-26T12:41:25.865Z,1.8
2017-12-26T12:42:28.319Z,1.6
2017-12-26T12:43:30.262Z,1.3
2017-12-26T12:44:32.313Z,1.7
2017-12-26T12:45:34.254Z,1.6
2017-12-26T12:46:36.206Z,1.7
2017-12-26T12:47:41.462Z,2.0
2017-12-26T12:48:43.421Z,2.1
2017-12-26T12:49:45.504Z,1.6
2017-12-26T12:50:47.394Z,1.5
2017-12-26T12:51:49.364Z,1.5
2017-12-26T12:52:51.317Z,1.7
2017-12-26T12:53:53.270Z,1.7
2017-12-26T12:54:55.265Z,1.8
2017-12-26T12:55:57.230Z,1.9
2017-12-26T12:56:59.180Z,2.3
2017-12-26T12:58:01.175Z,1.8
2017-12-26T12:59:03.278Z,1.8
2017-12-26T13:00:05.203Z,2.0
2017-12-26T13:01:07.144Z,2.1
2017-12-26T13:02:09.111Z,1.8
2017-12-26T13:03:11.093Z,1.6
2017-12-26T13:04:13.089Z,1.3
2017-12-26T13:05:15.050Z,1.4
2017-12-26T13:06:16.978Z,1.7
2017-12-26T13:07:18.997Z,1.7
2017-12-26T13:08:20.973Z,2.3
2017-12-26T13:09:22.883Z,1.9
2017-12-26T13:10:24.789Z,2.7
2017-12-26T13:11:26.710Z,2.9
2017-12-26T13:12:28.755Z,3.8
2017-12-26T13:13:30.697Z,3.0
2017-12-26T13:14:32.640Z,2.3
2017-12-26T13:15:34.566Z,2.2
2017-12-26T13:16:36.502Z,3.6
2017-12-26T13:17:38.397Z,4.3
2017-12-26T13:18:40.311Z,3.1
2017-12-26T13:19:42.208Z,2.4
2017-12-26T13:20:44.212Z,3.1
2017-12-26T13:21:46.098Z,2.2
2017-12-26T13:22:47.997Z,1.6
2017-12-26T13:23:49.986Z,1.7
2017-12-26T13:24:51.972Z,1.8
2017-12-26T13:25:53.940Z,1.7
2017-12-26T13:26:55.902Z,1.7
2017-12-26T13:27:57.858Z,2.7
2017-12-26T13:28:59.765Z,2.6
2017-12-26T13:30:01.669Z,2.4
2017-12-26T13:31:03.646Z,2.1
2017-12-26T13:32:05.627Z,2.0
2017-12-26T13:33:07.602Z,1.6
2017-12-26T13:34:09.556Z,1.8
2017-12-26T13:35:11.469Z,1.9
2017-12-26T13:36:13.573Z,1.8
2017-12-26T13:37:15.548Z,1.8
2017-12-26T13:38:17.978Z,2.1
2017-12-26T13:39:19.964Z,2.2
2017-12-26T13:40:21.890Z,1.6
2017-12-26T13:41:24.439Z,1.9
2017-12-26T13:42:26.425Z,1.8
2017-12-26T13:43:28.470Z,1.8
2017-12-26T13:44:30.503Z,1.9
2017-12-26T13:45:32.636Z,2.0
2017-12-26T13:46:34.514Z,2.0
2017-12-26T13:47:36.462Z,1.9
2017-12-26T13:48:38.383Z,2.0
2017-12-26T13:49:40.318Z,1.9
2017-12-26T13:50:42.278Z,2.0
2017-12-26T13:51:44.194Z,2.1
2017-12-26T13:52:46.228Z,1.9
2017-12-26T13:53:48.143Z,1.8
2017-12-26T13:54:50.105Z,2.2
2017-12-26T13:55:52.058Z,2.1
2017-12-26T13:56:54.010Z,2.2
2017-12-26T13:57:56.369Z,2.4
2017-12-26T13:58:58.306Z,1.8
2017-12-26T14:00:00.220Z,1.7
2017-12-26T14:01:02.115Z,1.9
2017-12-26T14:02:04.103Z,1.9
2017-12-26T14:03:06.306Z,2.2
2017-12-26T14:04:08.228Z,1.9
2017-12-26T14:05:10.188Z,2.0
2017-12-26T14:06:12.141Z,2.0
2017-12-26T14:07:14.138Z,2.4
2017-12-26T14:08:16.068Z,2.3
2017-12-26T14:09:18.209Z,2.0
2017-12-26T14:10:20.462Z,1.7
2017-12-26T14:11:22.412Z,2.6
2017-12-26T14:12:24.316Z,2.6
2017-12-26T14:13:26.336Z,4.0
2017-12-26T14:14:28.253Z,2.7